CheckWX is a tool to help pilots better visualize weather data.  It is not intended as a substitute for an official pre-flight weather briefing.

23:54:41 UTC

KHYA TAF
Barnstable Municipal-Boardman / Polando Field Airport
Hyannis, Massachusetts, USA
KHYA 161739Z 1618/1718 03018G27KT P6SM SKC FM170200 04013G21KT P6SM SKC FM170500 05014KT P6SM FEW250 FM170700 05014G21KT P6SM FEW200 FM171200 06015G25KT P6SM BKN060 FM171700 07016G27KT P6SM BKN035

Nov-16@
18:00 UTC

Nov-16 @ 18:00 UTC

Nov-17@
02:00 UTC

Nov-17 @ 02:00 UTC

KHYA 161739Z 1618/1718 03018G27KT P6SM SKC
Wind
  • 030° at 18 KTS
  • {Gusting to 27 KTS
Cloud Levels
  • Clear skies

Nov-17@
02:00 UTC

Nov-17 @ 02:00 UTC

Nov-17@
05:00 UTC

Nov-17 @ 05:00 UTC

FM170200 04013G21KT P6SM SKC

From

From Standard forecast or significant change

Wind
  • 040° at 13 KTS
  • {Gusting to 21 KTS
Cloud Levels
  • Clear skies

Nov-17@
05:00 UTC

Nov-17 @ 05:00 UTC

Nov-17@
07:00 UTC

Nov-17 @ 07:00 UTC

FM170500 05014KT P6SM FEW250

From

From Standard forecast or significant change

Wind
  • 050° at 14 KTS
Cloud Levels
  • Few at 25,000' AGL

Nov-17@
07:00 UTC

Nov-17 @ 07:00 UTC

Nov-17@
12:00 UTC

Nov-17 @ 12:00 UTC

FM170700 05014G21KT P6SM FEW200

From

From Standard forecast or significant change

Wind
  • 050° at 14 KTS
  • {Gusting to 21 KTS
Cloud Levels
  • Few at 20,000' AGL

Nov-17@
12:00 UTC

Nov-17 @ 12:00 UTC

Nov-17@
17:00 UTC

Nov-17 @ 17:00 UTC

FM171200 06015G25KT P6SM BKN060

From

From Standard forecast or significant change

Wind
  • 060° at 15 KTS
  • {Gusting to 25 KTS
Cloud Levels
  • Broken at 6,000' AGL

Nov-17@
17:00 UTC

Nov-17 @ 17:00 UTC

Nov-17@
18:00 UTC

Nov-17 @ 18:00 UTC

FM171700 07016G27KT P6SM BKN035

From

From Standard forecast or significant change

Wind
  • 070° at 16 KTS
  • {Gusting to 27 KTS
Cloud Levels
  • Broken at 3,500' AGL